sensor_id;sensor_type;location;lat;lon;timestamp;P1;durP1;ratioP1;P2;durP2;ratioP2
47960;SDS011;33721;48.852;9.936;2022-11-20T00:00:56;21.80;;;10.35;;
47960;SDS011;33721;48.852;9.936;2022-11-20T00:03:22;23.50;;;9.43;;
47960;SDS011;33721;48.852;9.936;2022-11-20T00:05:48;24.25;;;10.57;;
47960;SDS011;33721;48.852;9.936;2022-11-20T00:08:14;24.10;;;10.60;;
47960;SDS011;33721;48.852;9.936;2022-11-20T00:10:40;23.90;;;10.80;;
47960;SDS011;33721;48.852;9.936;2022-11-20T00:13:06;26.02;;;10.55;;
47960;SDS011;33721;48.852;9.936;2022-11-20T00:15:32;21.90;;;10.10;;
47960;SDS011;33721;48.852;9.936;2022-11-20T00:17:58;20.50;;;9.85;;
47960;SDS011;33721;48.852;9.936;2022-11-20T00:20:23;22.92;;;10.52;;
47960;SDS011;33721;48.852;9.936;2022-11-20T00:22:49;20.77;;;9.65;;
47960;SDS011;33721;48.852;9.936;2022-11-20T00:25:15;21.70;;;9.75;;
47960;SDS011;33721;48.852;9.936;2022-11-20T00:27:41;22.33;;;10.10;;
47960;SDS011;33721;48.852;9.936;2022-11-20T00:30:07;21.48;;;9.93;;
47960;SDS011;33721;48.852;9.936;2022-11-20T00:32:33;22.33;;;10.60;;
47960;SDS011;33721;48.852;9.936;2022-11-20T00:34:59;20.40;;;9.85;;
47960;SDS011;33721;48.852;9.936;2022-11-20T00:37:24;19.48;;;9.48;;
47960;SDS011;33721;48.852;9.936;2022-11-20T00:39:50;19.48;;;9.80;;
47960;SDS011;33721;48.852;9.936;2022-11-20T00:42:15;23.05;;;9.70;;
47960;SDS011;33721;48.852;9.936;2022-11-20T00:44:41;23.73;;;10.15;;
47960;SDS011;33721;48.852;9.936;2022-11-20T00:47:07;19.48;;;9.38;;
47960;SDS011;33721;48.852;9.936;2022-11-20T00:49:32;22.10;;;9.77;;
47960;SDS011;33721;48.852;9.936;2022-11-20T00:51:58;20.88;;;9.73;;
47960;SDS011;33721;48.852;9.936;2022-11-20T00:54:23;21.67;;;9.45;;
47960;SDS011;33721;48.852;9.936;2022-11-20T00:56:49;18.20;;;9.18;;
47960;SDS011;33721;48.852;9.936;2022-11-20T00:59:15;23.13;;;9.48;;
47960;SDS011;33721;48.852;9.936;2022-11-20T01:01:40;20.42;;;9.80;;
47960;SDS011;33721;48.852;9.936;2022-11-20T01:04:06;20.80;;;9.32;;
47960;SDS011;33721;48.852;9.936;2022-11-20T01:06:32;20.95;;;8.95;;
47960;SDS011;33721;48.852;9.936;2022-11-20T01:09:00;18.35;;;8.60;;
47960;SDS011;33721;48.852;9.936;2022-11-20T01:11:33;17.02;;;8.23;;
47960;SDS011;33721;48.852;9.936;2022-11-20T01:14:01;20.67;;;8.98;;
47960;SDS011;33721;48.852;9.936;2022-11-20T01:16:31;19.02;;;8.35;;
47960;SDS011;33721;48.852;9.936;2022-11-20T01:18:59;20.23;;;8.48;;
47960;SDS011;33721;48.852;9.936;2022-11-20T01:21:29;17.70;;;7.40;;
47960;SDS011;33721;48.852;9.936;2022-11-20T01:23:57;17.58;;;8.38;;
47960;SDS011;33721;48.852;9.936;2022-11-20T01:26:25;16.23;;;7.35;;
47960;SDS011;33721;48.852;9.936;2022-11-20T01:28:53;16.17;;;7.80;;
47960;SDS011;33721;48.852;9.936;2022-11-20T01:31:26;16.55;;;7.57;;
47960;SDS011;33721;48.852;9.936;2022-11-20T01:33:56;16.52;;;7.55;;
47960;SDS011;33721;48.852;9.936;2022-11-20T01:36:24;21.88;;;7.72;;
47960;SDS011;33721;48.852;9.936;2022-11-20T01:38:52;14.82;;;7.63;;
47960;SDS011;33721;48.852;9.936;2022-11-20T01:41:18;16.08;;;7.07;;
47960;SDS011;33721;48.852;9.936;2022-11-20T01:44:04;17.40;;;7.60;;
47960;SDS011;33721;48.852;9.936;2022-11-20T01:46:33;18.38;;;7.53;;
47960;SDS011;33721;48.852;9.936;2022-11-20T01:49:18;16.48;;;7.32;;
47960;SDS011;33721;48.852;9.936;2022-11-20T01:51:50;15.48;;;7.38;;
47960;SDS011;33721;48.852;9.936;2022-11-20T01:54:23;14.95;;;6.78;;
47960;SDS011;33721;48.852;9.936;2022-11-20T01:56:57;14.55;;;6.70;;
47960;SDS011;33721;48.852;9.936;2022-11-20T01:59:24;16.20;;;7.70;;
47960;SDS011;33721;48.852;9.936;2022-11-20T02:01:52;14.73;;;7.07;;
47960;SDS011;33721;48.852;9.936;2022-11-20T02:04:18;15.70;;;7.45;;
47960;SDS011;33721;48.852;9.936;2022-11-20T02:06:46;13.57;;;6.85;;
47960;SDS011;33721;48.852;9.936;2022-11-20T02:09:32;15.48;;;7.22;;
47960;SDS011;33721;48.852;9.936;2022-11-20T02:11:58;17.98;;;7.93;;
47960;SDS011;33721;48.852;9.936;2022-11-20T02:14:24;16.73;;;7.65;;
47960;SDS011;33721;48.852;9.936;2022-11-20T02:16:51;16.92;;;7.00;;
47960;SDS011;33721;48.852;9.936;2022-11-20T02:19:24;16.73;;;7.50;;
47960;SDS011;33721;48.852;9.936;2022-11-20T02:24:26;17.10;;;7.53;;
47960;SDS011;33721;48.852;9.936;2022-11-20T02:27:02;23.73;;;8.10;;
47960;SDS011;33721;48.852;9.936;2022-11-20T02:32:04;21.05;;;8.02;;
47960;SDS011;33721;48.852;9.936;2022-11-20T02:34:29;18.63;;;8.43;;
47960;SDS011;33721;48.852;9.936;2022-11-20T02:36:55;15.60;;;7.40;;
47960;SDS011;33721;48.852;9.936;2022-11-20T02:39:22;17.92;;;7.60;;
47960;SDS011;33721;48.852;9.936;2022-11-20T02:41:51;13.13;;;6.50;;
47960;SDS011;33721;48.852;9.936;2022-11-20T02:44:19;18.23;;;7.43;;
47960;SDS011;33721;48.852;9.936;2022-11-20T02:46:45;15.65;;;7.07;;
47960;SDS011;33721;48.852;9.936;2022-11-20T02:49:11;17.20;;;6.60;;
47960;SDS011;33721;48.852;9.936;2022-11-20T02:51:36;13.75;;;6.30;;
47960;SDS011;33721;48.852;9.936;2022-11-20T02:54:02;20.15;;;6.85;;
47960;SDS011;33721;48.852;9.936;2022-11-20T02:56:28;12.10;;;6.32;;
47960;SDS011;33721;48.852;9.936;2022-11-20T02:58:54;12.55;;;6.03;;
47960;SDS011;33721;48.852;9.936;2022-11-20T03:01:20;17.17;;;7.13;;
47960;SDS011;33721;48.852;9.936;2022-11-20T03:03:46;18.38;;;6.90;;
47960;SDS011;33721;48.852;9.936;2022-11-20T03:06:13;16.15;;;6.47;;
47960;SDS011;33721;48.852;9.936;2022-11-20T03:08:40;15.85;;;6.68;;
47960;SDS011;33721;48.852;9.936;2022-11-20T03:11:06;14.98;;;6.88;;
47960;SDS011;33721;48.852;9.936;2022-11-20T03:13:32;16.30;;;6.72;;
47960;SDS011;33721;48.852;9.936;2022-11-20T03:16:04;16.27;;;6.75;;
47960;SDS011;33721;48.852;9.936;2022-11-20T03:18:37;14.90;;;6.72;;
47960;SDS011;33721;48.852;9.936;2022-11-20T03:21:03;23.40;;;7.50;;
47960;SDS011;33721;48.852;9.936;2022-11-20T03:23:30;15.70;;;6.57;;
47960;SDS011;33721;48.852;9.936;2022-11-20T03:26:06;15.57;;;6.30;;
47960;SDS011;33721;48.852;9.936;2022-11-20T03:28:40;14.75;;;7.13;;
47960;SDS011;33721;48.852;9.936;2022-11-20T03:31:07;18.42;;;6.72;;
47960;SDS011;33721;48.852;9.936;2022-11-20T03:33:34;15.80;;;6.75;;
47960;SDS011;33721;48.852;9.936;2022-11-20T03:36:01;14.27;;;6.80;;
47960;SDS011;33721;48.852;9.936;2022-11-20T03:38:30;16.38;;;7.25;;
47960;SDS011;33721;48.852;9.936;2022-11-20T03:41:07;16.95;;;6.70;;
47960;SDS011;33721;48.852;9.936;2022-11-20T03:43:37;16.52;;;6.93;;
47960;SDS011;33721;48.852;9.936;2022-11-20T03:46:03;17.80;;;7.18;;
47960;SDS011;33721;48.852;9.936;2022-11-20T03:48:30;14.10;;;7.20;;
47960;SDS011;33721;48.852;9.936;2022-11-20T03:53:42;15.82;;;7.28;;
47960;SDS011;33721;48.852;9.936;2022-11-20T03:56:09;15.73;;;7.03;;
47960;SDS011;33721;48.852;9.936;2022-11-20T03:58:36;17.00;;;7.07;;
47960;SDS011;33721;48.852;9.936;2022-11-20T04:01:14;17.63;;;6.85;;
47960;SDS011;33721;48.852;9.936;2022-11-20T04:03:42;19.10;;;7.20;;
47960;SDS011;33721;48.852;9.936;2022-11-20T04:06:13;16.40;;;6.95;;
47960;SDS011;33721;48.852;9.936;2022-11-20T04:08:44;18.50;;;6.43;;
47960;SDS011;33721;48.852;9.936;2022-11-20T04:11:11;17.67;;;7.05;;
47960;SDS011;33721;48.852;9.936;2022-11-20T04:13:38;15.43;;;7.00;;
47960;SDS011;33721;48.852;9.936;2022-11-20T04:16:06;13.57;;;6.35;;
47960;SDS011;33721;48.852;9.936;2022-11-20T04:18:32;17.75;;;6.85;;
47960;SDS011;33721;48.852;9.936;2022-11-20T04:20:58;13.98;;;6.25;;
47960;SDS011;33721;48.852;9.936;2022-11-20T04:23:24;16.20;;;6.38;;
47960;SDS011;33721;48.852;9.936;2022-11-20T04:25:50;14.10;;;6.63;;
47960;SDS011;33721;48.852;9.936;2022-11-20T04:28:16;13.30;;;6.65;;
47960;SDS011;33721;48.852;9.936;2022-11-20T04:30:41;14.65;;;6.65;;
47960;SDS011;33721;48.852;9.936;2022-11-20T04:33:07;13.18;;;5.80;;
47960;SDS011;33721;48.852;9.936;2022-11-20T04:35:36;13.48;;;6.32;;
47960;SDS011;33721;48.852;9.936;2022-11-20T04:38:02;15.60;;;6.45;;
47960;SDS011;33721;48.852;9.936;2022-11-20T04:40:28;13.48;;;6.40;;
47960;SDS011;33721;48.852;9.936;2022-11-20T04:42:54;14.10;;;5.82;;
47960;SDS011;33721;48.852;9.936;2022-11-20T04:45:20;13.40;;;6.20;;
47960;SDS011;33721;48.852;9.936;2022-11-20T04:47:47;14.50;;;6.25;;
47960;SDS011;33721;48.852;9.936;2022-11-20T04:50:12;14.35;;;5.80;;
47960;SDS011;33721;48.852;9.936;2022-11-20T04:52:38;14.27;;;6.18;;
47960;SDS011;33721;48.852;9.936;2022-11-20T04:55:03;13.75;;;5.85;;
47960;SDS011;33721;48.852;9.936;2022-11-20T04:57:29;14.43;;;6.05;;
47960;SDS011;33721;48.852;9.936;2022-11-20T04:59:55;15.20;;;6.40;;
47960;SDS011;33721;48.852;9.936;2022-11-20T05:02:21;12.65;;;5.80;;
47960;SDS011;33721;48.852;9.936;2022-11-20T05:04:47;16.55;;;6.15;;
47960;SDS011;33721;48.852;9.936;2022-11-20T05:07:12;12.80;;;5.65;;
47960;SDS011;33721;48.852;9.936;2022-11-20T05:09:38;14.40;;;6.25;;
47960;SDS011;33721;48.852;9.936;2022-11-20T05:12:04;12.52;;;5.57;;
47960;SDS011;33721;48.852;9.936;2022-11-20T05:14:29;12.95;;;5.90;;
47960;SDS011;33721;48.852;9.936;2022-11-20T05:16:55;15.55;;;5.82;;
47960;SDS011;33721;48.852;9.936;2022-11-20T05:19:20;11.82;;;5.70;;
47960;SDS011;33721;48.852;9.936;2022-11-20T05:21:46;12.77;;;5.68;;
47960;SDS011;33721;48.852;9.936;2022-11-20T05:24:12;12.20;;;5.53;;
47960;SDS011;33721;48.852;9.936;2022-11-20T05:26:37;11.80;;;5.85;;
47960;SDS011;33721;48.852;9.936;2022-11-20T05:29:03;11.95;;;5.80;;
47960;SDS011;33721;48.852;9.936;2022-11-20T05:31:29;13.45;;;5.82;;
47960;SDS011;33721;48.852;9.936;2022-11-20T05:33:56;10.77;;;5.70;;
47960;SDS011;33721;48.852;9.936;2022-11-20T05:36:22;12.93;;;5.40;;
47960;SDS011;33721;48.852;9.936;2022-11-20T05:38:48;13.57;;;5.95;;
47960;SDS011;33721;48.852;9.936;2022-11-20T05:41:15;10.63;;;4.85;;
47960;SDS011;33721;48.852;9.936;2022-11-20T05:43:42;12.23;;;5.20;;
47960;SDS011;33721;48.852;9.936;2022-11-20T05:46:10;9.98;;;4.65;;
47960;SDS011;33721;48.852;9.936;2022-11-20T05:48:38;9.73;;;4.95;;
47960;SDS011;33721;48.852;9.936;2022-11-20T05:51:05;11.30;;;4.80;;
47960;SDS011;33721;48.852;9.936;2022-11-20T05:53:33;11.40;;;5.65;;
47960;SDS011;33721;48.852;9.936;2022-11-20T05:56:04;9.13;;;4.70;;
47960;SDS011;33721;48.852;9.936;2022-11-20T06:01:20;9.00;;;4.35;;
47960;SDS011;33721;48.852;9.936;2022-11-20T06:03:48;9.80;;;4.95;;
47960;SDS011;33721;48.852;9.936;2022-11-20T06:06:15;8.68;;;4.15;;
47960;SDS011;33721;48.852;9.936;2022-11-20T06:08:44;8.55;;;4.38;;
47960;SDS011;33721;48.852;9.936;2022-11-20T06:11:10;10.07;;;4.65;;
47960;SDS011;33721;48.852;9.936;2022-11-20T06:13:37;9.63;;;4.60;;
47960;SDS011;33721;48.852;9.936;2022-11-20T06:16:03;8.85;;;4.60;;
47960;SDS011;33721;48.852;9.936;2022-11-20T06:18:30;8.30;;;4.00;;
47960;SDS011;33721;48.852;9.936;2022-11-20T06:23:32;10.75;;;4.28;;
47960;SDS011;33721;48.852;9.936;2022-11-20T06:26:08;8.40;;;4.22;;
47960;SDS011;33721;48.852;9.936;2022-11-20T06:28:36;9.70;;;4.35;;
47960;SDS011;33721;48.852;9.936;2022-11-20T06:31:02;11.90;;;4.35;;
47960;SDS011;33721;48.852;9.936;2022-11-20T06:33:28;10.50;;;4.50;;
47960;SDS011;33721;48.852;9.936;2022-11-20T06:35:57;8.35;;;4.50;;
47960;SDS011;33721;48.852;9.936;2022-11-20T06:38:25;9.48;;;4.60;;
47960;SDS011;33721;48.852;9.936;2022-11-20T06:40:51;13.10;;;4.30;;
47960;SDS011;33721;48.852;9.936;2022-11-20T06:43:17;11.05;;;4.20;;
47960;SDS011;33721;48.852;9.936;2022-11-20T06:45:42;10.23;;;4.60;;
47960;SDS011;33721;48.852;9.936;2022-11-20T06:48:08;10.00;;;4.32;;
47960;SDS011;33721;48.852;9.936;2022-11-20T06:50:34;12.20;;;4.90;;
47960;SDS011;33721;48.852;9.936;2022-11-20T06:53:02;8.95;;;4.53;;
47960;SDS011;33721;48.852;9.936;2022-11-20T06:55:29;10.93;;;4.53;;
47960;SDS011;33721;48.852;9.936;2022-11-20T06:57:55;11.77;;;4.78;;
47960;SDS011;33721;48.852;9.936;2022-11-20T07:00:20;9.18;;;4.47;;
47960;SDS011;33721;48.852;9.936;2022-11-20T07:02:46;9.48;;;4.25;;
47960;SDS011;33721;48.852;9.936;2022-11-20T07:05:12;7.50;;;3.58;;
47960;SDS011;33721;48.852;9.936;2022-11-20T07:07:37;9.55;;;4.20;;
47960;SDS011;33721;48.852;9.936;2022-11-20T07:10:03;8.00;;;3.90;;
47960;SDS011;33721;48.852;9.936;2022-11-20T07:12:29;8.35;;;4.03;;
47960;SDS011;33721;48.852;9.936;2022-11-20T07:14:55;8.90;;;3.42;;
47960;SDS011;33721;48.852;9.936;2022-11-20T07:17:21;5.97;;;3.67;;
47960;SDS011;33721;48.852;9.936;2022-11-20T07:19:46;6.95;;;3.70;;
47960;SDS011;33721;48.852;9.936;2022-11-20T07:22:12;9.60;;;3.95;;
47960;SDS011;33721;48.852;9.936;2022-11-20T07:24:38;9.25;;;3.80;;
47960;SDS011;33721;48.852;9.936;2022-11-20T07:27:04;7.68;;;3.78;;
47960;SDS011;33721;48.852;9.936;2022-11-20T07:29:30;7.88;;;3.83;;
47960;SDS011;33721;48.852;9.936;2022-11-20T07:31:56;9.15;;;4.07;;
47960;SDS011;33721;48.852;9.936;2022-11-20T07:34:21;7.93;;;3.80;;
47960;SDS011;33721;48.852;9.936;2022-11-20T07:36:47;10.57;;;3.70;;
47960;SDS011;33721;48.852;9.936;2022-11-20T07:39:13;6.88;;;3.70;;
47960;SDS011;33721;48.852;9.936;2022-11-20T07:41:38;10.50;;;3.72;;
47960;SDS011;33721;48.852;9.936;2022-11-20T07:44:04;7.03;;;3.15;;
47960;SDS011;33721;48.852;9.936;2022-11-20T07:46:30;9.73;;;3.63;;
47960;SDS011;33721;48.852;9.936;2022-11-20T07:48:56;7.57;;;3.33;;
47960;SDS011;33721;48.852;9.936;2022-11-20T07:51:21;8.95;;;3.17;;
47960;SDS011;33721;48.852;9.936;2022-11-20T07:53:47;7.18;;;3.17;;
47960;SDS011;33721;48.852;9.936;2022-11-20T07:56:16;6.93;;;3.33;;
47960;SDS011;33721;48.852;9.936;2022-11-20T07:58:42;6.20;;;3.20;;
47960;SDS011;33721;48.852;9.936;2022-11-20T08:01:07;9.20;;;3.95;;
47960;SDS011;33721;48.852;9.936;2022-11-20T08:03:33;8.55;;;3.95;;
47960;SDS011;33721;48.852;9.936;2022-11-20T08:05:59;6.43;;;3.22;;
47960;SDS011;33721;48.852;9.936;2022-11-20T08:08:26;6.53;;;3.47;;
47960;SDS011;33721;48.852;9.936;2022-11-20T08:10:51;9.48;;;3.70;;
47960;SDS011;33721;48.852;9.936;2022-11-20T08:13:17;9.02;;;3.72;;
47960;SDS011;33721;48.852;9.936;2022-11-20T08:16:01;7.43;;;3.05;;
47960;SDS011;33721;48.852;9.936;2022-11-20T08:18:27;8.20;;;3.58;;
47960;SDS011;33721;48.852;9.936;2022-11-20T08:20:52;7.90;;;3.40;;
47960;SDS011;33721;48.852;9.936;2022-11-20T08:23:18;6.88;;;3.03;;
47960;SDS011;33721;48.852;9.936;2022-11-20T08:25:48;7.25;;;3.70;;
47960;SDS011;33721;48.852;9.936;2022-11-20T08:30:40;7.35;;;3.10;;
47960;SDS011;33721;48.852;9.936;2022-11-20T08:33:06;6.85;;;3.25;;
47960;SDS011;33721;48.852;9.936;2022-11-20T08:35:36;6.82;;;3.25;;
47960;SDS011;33721;48.852;9.936;2022-11-20T08:38:04;7.30;;;2.83;;
47960;SDS011;33721;48.852;9.936;2022-11-20T08:40:30;11.63;;;3.30;;
47960;SDS011;33721;48.852;9.936;2022-11-20T08:42:56;8.75;;;3.40;;
47960;SDS011;33721;48.852;9.936;2022-11-20T08:45:22;8.38;;;3.53;;
47960;SDS011;33721;48.852;9.936;2022-11-20T08:47:48;5.53;;;2.90;;
47960;SDS011;33721;48.852;9.936;2022-11-20T08:50:14;7.53;;;3.22;;
47960;SDS011;33721;48.852;9.936;2022-11-20T08:52:41;4.75;;;2.53;;
47960;SDS011;33721;48.852;9.936;2022-11-20T08:55:07;8.50;;;3.30;;
47960;SDS011;33721;48.852;9.936;2022-11-20T08:57:33;6.25;;;3.08;;
47960;SDS011;33721;48.852;9.936;2022-11-20T09:00:06;11.20;;;3.03;;
47960;SDS011;33721;48.852;9.936;2022-11-20T09:02:35;6.70;;;3.30;;
47960;SDS011;33721;48.852;9.936;2022-11-20T09:05:01;6.57;;;3.35;;
47960;SDS011;33721;48.852;9.936;2022-11-20T09:07:27;6.70;;;3.00;;
47960;SDS011;33721;48.852;9.936;2022-11-20T09:09:54;6.20;;;3.15;;
47960;SDS011;33721;48.852;9.936;2022-11-20T09:12:19;6.43;;;3.05;;
47960;SDS011;33721;48.852;9.936;2022-11-20T09:14:45;9.13;;;3.88;;
47960;SDS011;33721;48.852;9.936;2022-11-20T09:17:10;7.40;;;3.63;;
47960;SDS011;33721;48.852;9.936;2022-11-20T09:19:38;6.40;;;3.38;;
47960;SDS011;33721;48.852;9.936;2022-11-20T09:22:04;6.90;;;3.80;;
47960;SDS011;33721;48.852;9.936;2022-11-20T09:24:30;7.03;;;3.05;;
47960;SDS011;33721;48.852;9.936;2022-11-20T09:26:56;7.53;;;3.78;;
47960;SDS011;33721;48.852;9.936;2022-11-20T09:29:22;5.90;;;3.05;;
47960;SDS011;33721;48.852;9.936;2022-11-20T09:31:47;7.93;;;3.20;;
47960;SDS011;33721;48.852;9.936;2022-11-20T09:34:13;8.30;;;3.58;;
47960;SDS011;33721;48.852;9.936;2022-11-20T09:36:39;6.93;;;3.17;;
47960;SDS011;33721;48.852;9.936;2022-11-20T09:39:04;5.35;;;2.92;;
47960;SDS011;33721;48.852;9.936;2022-11-20T09:42:18;9.35;;;2.80;;
47960;SDS011;33721;48.852;9.936;2022-11-20T09:46:47;5.28;;;2.55;;
47960;SDS011;33721;48.852;9.936;2022-11-20T09:55:02;6.22;;;2.92;;
47960;SDS011;33721;48.852;9.936;2022-11-20T09:57:36;5.43;;;2.78;;
47960;SDS011;33721;48.852;9.936;2022-11-20T10:00:05;10.00;;;2.90;;
47960;SDS011;33721;48.852;9.936;2022-11-20T10:05:12;5.18;;;2.55;;
47960;SDS011;33721;48.852;9.936;2022-11-20T10:07:59;6.90;;;2.83;;
47960;SDS011;33721;48.852;9.936;2022-11-20T10:18:35;6.72;;;3.00;;
47960;SDS011;33721;48.852;9.936;2022-11-20T10:24:11;5.32;;;2.60;;
47960;SDS011;33721;48.852;9.936;2022-11-20T10:26:51;5.25;;;2.75;;
47960;SDS011;33721;48.852;9.936;2022-11-20T10:29:32;4.82;;;2.25;;
47960;SDS011;33721;48.852;9.936;2022-11-20T10:32:02;5.28;;;2.33;;
47960;SDS011;33721;48.852;9.936;2022-11-20T10:34:43;7.13;;;2.65;;
47960;SDS011;33721;48.852;9.936;2022-11-20T10:37:14;6.03;;;2.75;;
47960;SDS011;33721;48.852;9.936;2022-11-20T10:42:43;4.80;;;2.45;;
47960;SDS011;33721;48.852;9.936;2022-11-20T10:45:18;4.53;;;2.40;;
47960;SDS011;33721;48.852;9.936;2022-11-20T10:47:54;6.05;;;2.58;;
47960;SDS011;33721;48.852;9.936;2022-11-20T10:50:35;4.47;;;2.40;;
47960;SDS011;33721;48.852;9.936;2022-11-20T10:53:08;4.55;;;2.30;;
47960;SDS011;33721;48.852;9.936;2022-11-20T11:01:17;3.97;;;2.15;;
47960;SDS011;33721;48.852;9.936;2022-11-20T11:03:48;6.80;;;3.03;;
47960;SDS011;33721;48.852;9.936;2022-11-20T11:06:35;5.18;;;2.88;;
47960;SDS011;33721;48.852;9.936;2022-11-20T11:09:16;6.00;;;2.83;;
47960;SDS011;33721;48.852;9.936;2022-11-20T11:14:12;7.63;;;2.65;;
47960;SDS011;33721;48.852;9.936;2022-11-20T11:16:50;6.03;;;2.83;;
47960;SDS011;33721;48.852;9.936;2022-11-20T11:19:23;5.28;;;2.60;;
47960;SDS011;33721;48.852;9.936;2022-11-20T11:21:50;6.68;;;3.13;;
47960;SDS011;33721;48.852;9.936;2022-11-20T11:24:25;5.07;;;2.75;;
47960;SDS011;33721;48.852;9.936;2022-11-20T11:29:29;7.25;;;3.00;;
47960;SDS011;33721;48.852;9.936;2022-11-20T11:32:06;5.75;;;3.10;;
47960;SDS011;33721;48.852;9.936;2022-11-20T11:34:33;5.93;;;2.92;;
47960;SDS011;33721;48.852;9.936;2022-11-20T11:37:00;5.70;;;2.95;;
47960;SDS011;33721;48.852;9.936;2022-11-20T11:39:28;6.50;;;2.78;;
47960;SDS011;33721;48.852;9.936;2022-11-20T11:41:55;5.32;;;2.83;;
47960;SDS011;33721;48.852;9.936;2022-11-20T11:44:24;5.13;;;2.63;;
47960;SDS011;33721;48.852;9.936;2022-11-20T11:47:23;8.55;;;2.72;;
47960;SDS011;33721;48.852;9.936;2022-11-20T11:53:09;5.45;;;2.88;;
47960;SDS011;33721;48.852;9.936;2022-11-20T11:55:43;5.63;;;2.90;;
47960;SDS011;33721;48.852;9.936;2022-11-20T11:58:15;7.03;;;2.38;;
47960;SDS011;33721;48.852;9.936;2022-11-20T12:01:08;4.75;;;2.65;;
47960;SDS011;33721;48.852;9.936;2022-11-20T12:04:03;5.35;;;2.72;;
47960;SDS011;33721;48.852;9.936;2022-11-20T12:06:37;4.65;;;2.28;;
47960;SDS011;33721;48.852;9.936;2022-11-20T12:09:11;3.42;;;2.00;;
47960;SDS011;33721;48.852;9.936;2022-11-20T12:11:45;4.80;;;2.25;;
47960;SDS011;33721;48.852;9.936;2022-11-20T12:14:35;4.70;;;2.40;;
47960;SDS011;33721;48.852;9.936;2022-11-20T12:17:03;3.67;;;2.05;;
47960;SDS011;33721;48.852;9.936;2022-11-20T12:19:30;4.43;;;2.13;;
47960;SDS011;33721;48.852;9.936;2022-11-20T12:24:39;6.03;;;2.58;;
47960;SDS011;33721;48.852;9.936;2022-11-20T12:29:50;4.53;;;2.28;;
47960;SDS011;33721;48.852;9.936;2022-11-20T12:35:36;4.22;;;2.40;;
47960;SDS011;33721;48.852;9.936;2022-11-20T12:44:09;4.28;;;2.28;;
47960;SDS011;33721;48.852;9.936;2022-11-20T13:07:03;3.80;;;2.10;;
47960;SDS011;33721;48.852;9.936;2022-11-20T13:09:32;5.15;;;2.20;;
47960;SDS011;33721;48.852;9.936;2022-11-20T13:12:10;6.35;;;3.20;;
47960;SDS011;33721;48.852;9.936;2022-11-20T13:14:51;13.40;;;2.80;;
47960;SDS011;33721;48.852;9.936;2022-11-20T13:18:04;8.15;;;3.20;;
47960;SDS011;33721;48.852;9.936;2022-11-20T13:20:25;4.60;;;2.63;;
47960;SDS011;33721;48.852;9.936;2022-11-20T13:22:52;7.05;;;3.38;;
47960;SDS011;33721;48.852;9.936;2022-11-20T13:25:26;11.15;;;3.65;;
47960;SDS011;33721;48.852;9.936;2022-11-20T13:27:55;8.65;;;3.47;;
47960;SDS011;33721;48.852;9.936;2022-11-20T13:30:23;6.20;;;3.45;;
47960;SDS011;33721;48.852;9.936;2022-11-20T13:32:57;6.85;;;3.72;;
47960;SDS011;33721;48.852;9.936;2022-11-20T13:35:31;6.45;;;3.35;;
47960;SDS011;33721;48.852;9.936;2022-11-20T13:38:05;8.77;;;3.00;;
47960;SDS011;33721;48.852;9.936;2022-11-20T13:40:37;5.63;;;3.00;;
47960;SDS011;33721;48.852;9.936;2022-11-20T13:43:22;6.28;;;2.63;;
47960;SDS011;33721;48.852;9.936;2022-11-20T13:46:01;7.60;;;3.15;;
47960;SDS011;33721;48.852;9.936;2022-11-20T13:48:41;6.10;;;3.20;;
47960;SDS011;33721;48.852;9.936;2022-11-20T13:54:22;5.93;;;3.03;;
47960;SDS011;33721;48.852;9.936;2022-11-20T13:56:59;4.75;;;2.33;;
47960;SDS011;33721;48.852;9.936;2022-11-20T14:02:33;9.25;;;2.58;;
47960;SDS011;33721;48.852;9.936;2022-11-20T14:04:59;7.85;;;3.47;;
47960;SDS011;33721;48.852;9.936;2022-11-20T14:07:37;9.88;;;3.28;;
47960;SDS011;33721;48.852;9.936;2022-11-20T14:10:05;5.57;;;2.80;;
47960;SDS011;33721;48.852;9.936;2022-11-20T14:12:43;5.72;;;3.00;;
47960;SDS011;33721;48.852;9.936;2022-11-20T14:15:22;6.88;;;2.90;;
47960;SDS011;33721;48.852;9.936;2022-11-20T14:17:57;9.60;;;3.00;;
47960;SDS011;33721;48.852;9.936;2022-11-20T14:20:24;5.88;;;2.85;;
47960;SDS011;33721;48.852;9.936;2022-11-20T14:22:54;8.05;;;3.40;;
47960;SDS011;33721;48.852;9.936;2022-11-20T14:25:24;6.38;;;3.22;;
47960;SDS011;33721;48.852;9.936;2022-11-20T14:27:56;6.70;;;3.35;;
47960;SDS011;33721;48.852;9.936;2022-11-20T14:30:25;10.05;;;3.60;;
47960;SDS011;33721;48.852;9.936;2022-11-20T14:32:53;6.45;;;3.22;;
47960;SDS011;33721;48.852;9.936;2022-11-20T14:35:25;6.70;;;3.33;;
47960;SDS011;33721;48.852;9.936;2022-11-20T14:37:52;6.47;;;3.30;;
47960;SDS011;33721;48.852;9.936;2022-11-20T14:43:00;6.93;;;3.50;;
47960;SDS011;33721;48.852;9.936;2022-11-20T14:45:27;7.18;;;4.00;;
47960;SDS011;33721;48.852;9.936;2022-11-20T14:47:54;6.82;;;3.20;;
47960;SDS011;33721;48.852;9.936;2022-11-20T14:50:23;7.32;;;3.35;;
47960;SDS011;33721;48.852;9.936;2022-11-20T14:52:59;11.05;;;3.83;;
47960;SDS011;33721;48.852;9.936;2022-11-20T14:55:33;8.88;;;3.30;;
47960;SDS011;33721;48.852;9.936;2022-11-20T14:58:05;8.05;;;3.70;;
47960;SDS011;33721;48.852;9.936;2022-11-20T15:00:53;9.13;;;3.80;;
47960;SDS011;33721;48.852;9.936;2022-11-20T15:03:23;9.45;;;4.03;;
47960;SDS011;33721;48.852;9.936;2022-11-20T15:05:55;9.00;;;3.50;;
47960;SDS011;33721;48.852;9.936;2022-11-20T15:08:21;9.15;;;3.17;;
47960;SDS011;33721;48.852;9.936;2022-11-20T15:10:50;5.00;;;3.00;;
47960;SDS011;33721;48.852;9.936;2022-11-20T15:13:26;5.70;;;2.90;;
47960;SDS011;33721;48.852;9.936;2022-11-20T15:16:02;5.70;;;2.90;;
47960;SDS011;33721;48.852;9.936;2022-11-20T15:18:37;8.10;;;2.90;;
47960;SDS011;33721;48.852;9.936;2022-11-20T15:21:09;5.28;;;2.67;;
47960;SDS011;33721;48.852;9.936;2022-11-20T15:23:39;4.45;;;2.10;;
47960;SDS011;33721;48.852;9.936;2022-11-20T15:26:06;6.13;;;2.55;;
47960;SDS011;33721;48.852;9.936;2022-11-20T15:31:04;4.70;;;2.20;;
47960;SDS011;33721;48.852;9.936;2022-11-20T15:33:30;8.40;;;3.03;;
47960;SDS011;33721;48.852;9.936;2022-11-20T15:35:57;4.07;;;2.53;;
47960;SDS011;33721;48.852;9.936;2022-11-20T15:38:24;7.53;;;2.95;;
47960;SDS011;33721;48.852;9.936;2022-11-20T15:40:50;5.30;;;2.38;;
47960;SDS011;33721;48.852;9.936;2022-11-20T15:43:15;6.05;;;2.85;;
47960;SDS011;33721;48.852;9.936;2022-11-20T15:45:42;6.55;;;2.47;;
47960;SDS011;33721;48.852;9.936;2022-11-20T15:56:02;11.18;;;3.05;;
47960;SDS011;33721;48.852;9.936;2022-11-20T15:58:29;4.78;;;2.50;;
47960;SDS011;33721;48.852;9.936;2022-11-20T16:00:55;6.10;;;3.20;;
47960;SDS011;33721;48.852;9.936;2022-11-20T16:03:21;8.48;;;2.67;;
47960;SDS011;33721;48.852;9.936;2022-11-20T16:05:47;4.95;;;2.70;;
47960;SDS011;33721;48.852;9.936;2022-11-20T16:08:13;7.03;;;2.80;;
47960;SDS011;33721;48.852;9.936;2022-11-20T16:10:39;7.53;;;2.92;;
47960;SDS011;33721;48.852;9.936;2022-11-20T16:13:11;5.78;;;2.67;;
47960;SDS011;33721;48.852;9.936;2022-11-20T16:15:57;5.05;;;2.88;;
47960;SDS011;33721;48.852;9.936;2022-11-20T16:18:24;7.10;;;2.67;;
47960;SDS011;33721;48.852;9.936;2022-11-20T16:20:53;7.95;;;2.75;;
47960;SDS011;33721;48.852;9.936;2022-11-20T16:23:19;7.57;;;2.70;;
47960;SDS011;33721;48.852;9.936;2022-11-20T16:25:45;6.57;;;2.45;;
47960;SDS011;33721;48.852;9.936;2022-11-20T16:28:11;10.60;;;2.60;;
47960;SDS011;33721;48.852;9.936;2022-11-20T16:30:38;8.80;;;2.47;;
47960;SDS011;33721;48.852;9.936;2022-11-20T16:33:04;5.45;;;2.55;;
47960;SDS011;33721;48.852;9.936;2022-11-20T16:35:34;7.38;;;2.50;;
47960;SDS011;33721;48.852;9.936;2022-11-20T16:38:00;4.85;;;2.60;;
47960;SDS011;33721;48.852;9.936;2022-11-20T16:40:26;8.00;;;3.17;;